<?xml version="1.0" encoding="utf-8"?>
<gpx xmlns:xsi="http://www.w3.org/2001/XMLSchema-instance" xmlns:xsd="http://www.w3.org/2001/XMLSchema" version="1.1" creator="Shapelink.com" xmlns="http://www.topografix.com/GPX/1/1" xmlns:gpxtpx="http://www.garmin.com/xmlschemas/TrackPointExtension/v1">
  <metadata>
    <name>Gåing 2.47 km, 2012-08-14</name>
    <desc></desc>
    <author><name>Mikael Blom</name></author> 
    <time>2012-08-14T17:47:48Z</time>
  </metadata>
  <trk>
    <name>Gåing 2.47 km, 2012-08-14</name>
    <trkseg>
      <trkpt lat="59.9553858" lon="17.7149192">
        <ele>44.358</ele>
        <time>2012-08-14T17:47:48Z</time>
      </trkpt>
      <trkpt lat="59.9553843" lon="17.7148949">
        <ele>44.358</ele>
        <time>2012-08-14T17:47:49Z</time>
      </trkpt>
      <trkpt lat="59.9553769" lon="17.7148343">
        <ele>45.7999</ele>
        <time>2012-08-14T17:47:52Z</time>
      </trkpt>
      <trkpt lat="59.9553878" lon="17.7147063">
        <ele>43.8773</ele>
        <time>2012-08-14T17:47:58Z</time>
      </trkpt>
      <trkpt lat="59.9553407" lon="17.7145365">
        <ele>42.916</ele>
        <time>2012-08-14T17:48:05Z</time>
      </trkpt>
      <trkpt lat="59.9553149" lon="17.7144178">
        <ele>41.9547</ele>
        <time>2012-08-14T17:48:10Z</time>
      </trkpt>
      <trkpt lat="59.9553006" lon="17.7143724">
        <ele>40.9934</ele>
        <time>2012-08-14T17:48:12Z</time>
      </trkpt>
      <trkpt lat="59.9552501" lon="17.7141812">
        <ele>37.1481</ele>
        <time>2012-08-14T17:48:20Z</time>
      </trkpt>
      <trkpt lat="59.9552077" lon="17.7141789">
        <ele>36.6675</ele>
        <time>2012-08-14T17:48:22Z</time>
      </trkpt>
      <trkpt lat="59.9551708" lon="17.714322">
        <ele>35.7061</ele>
        <time>2012-08-14T17:48:28Z</time>
      </trkpt>
      <trkpt lat="59.9551159" lon="17.7143922">
        <ele>35.7061</ele>
        <time>2012-08-14T17:48:33Z</time>
      </trkpt>
      <trkpt lat="59.955044" lon="17.7145073">
        <ele>36.6675</ele>
        <time>2012-08-14T17:48:39Z</time>
      </trkpt>
      <trkpt lat="59.9549952" lon="17.714611">
        <ele>37.6287</ele>
        <time>2012-08-14T17:48:44Z</time>
      </trkpt>
      <trkpt lat="59.9549844" lon="17.7146328">
        <ele>38.1094</ele>
        <time>2012-08-14T17:48:45Z</time>
      </trkpt>
      <trkpt lat="59.9548947" lon="17.7147647">
        <ele>38.1094</ele>
        <time>2012-08-14T17:48:52Z</time>
      </trkpt>
      <trkpt lat="59.9548834" lon="17.7147798">
        <ele>38.1094</ele>
        <time>2012-08-14T17:48:53Z</time>
      </trkpt>
      <trkpt lat="59.9547942" lon="17.7148078">
        <ele>40.5128</ele>
        <time>2012-08-14T17:49:00Z</time>
      </trkpt>
      <trkpt lat="59.954778" lon="17.7148059">
        <ele>40.5128</ele>
        <time>2012-08-14T17:49:01Z</time>
      </trkpt>
      <trkpt lat="59.9547466" lon="17.714811">
        <ele>40.9934</ele>
        <time>2012-08-14T17:49:03Z</time>
      </trkpt>
      <trkpt lat="59.9546404" lon="17.7148359">
        <ele>45.3192</ele>
        <time>2012-08-14T17:49:09Z</time>
      </trkpt>
      <trkpt lat="59.9545304" lon="17.7148564">
        <ele>46.2806</ele>
        <time>2012-08-14T17:49:15Z</time>
      </trkpt>
      <trkpt lat="59.954417" lon="17.7148751">
        <ele>46.7612</ele>
        <time>2012-08-14T17:49:22Z</time>
      </trkpt>
      <trkpt lat="59.9543073" lon="17.7148686">
        <ele>45.3192</ele>
        <time>2012-08-14T17:49:30Z</time>
      </trkpt>
      <trkpt lat="59.9542309" lon="17.7148919">
        <ele>47.2418</ele>
        <time>2012-08-14T17:49:36Z</time>
      </trkpt>
      <trkpt lat="59.9542004" lon="17.7149035">
        <ele>45.7999</ele>
        <time>2012-08-14T17:49:38Z</time>
      </trkpt>
      <trkpt lat="59.9541276" lon="17.7149462">
        <ele>49.1646</ele>
        <time>2012-08-14T17:49:43Z</time>
      </trkpt>
      <trkpt lat="59.9540633" lon="17.7149584">
        <ele>51.0872</ele>
        <time>2012-08-14T17:49:48Z</time>
      </trkpt>
      <trkpt lat="59.9539742" lon="17.7149903">
        <ele>48.2034</ele>
        <time>2012-08-14T17:49:54Z</time>
      </trkpt>
      <trkpt lat="59.9538982" lon="17.7150149">
        <ele>44.8386</ele>
        <time>2012-08-14T17:50:00Z</time>
      </trkpt>
      <trkpt lat="59.9538202" lon="17.7150724">
        <ele>41.9547</ele>
        <time>2012-08-14T17:50:06Z</time>
      </trkpt>
      <trkpt lat="59.9537516" lon="17.715109">
        <ele>40.5128</ele>
        <time>2012-08-14T17:50:10Z</time>
      </trkpt>
      <trkpt lat="59.9536436" lon="17.7152297">
        <ele>40.9934</ele>
        <time>2012-08-14T17:50:17Z</time>
      </trkpt>
      <trkpt lat="59.9535453" lon="17.7153155">
        <ele>39.5513</ele>
        <time>2012-08-14T17:50:24Z</time>
      </trkpt>
      <trkpt lat="59.9534444" lon="17.7154146">
        <ele>40.0321</ele>
        <time>2012-08-14T17:50:31Z</time>
      </trkpt>
      <trkpt lat="59.9534117" lon="17.7154819">
        <ele>40.9934</ele>
        <time>2012-08-14T17:50:34Z</time>
      </trkpt>
      <trkpt lat="59.9533329" lon="17.7156575">
        <ele>41.9547</ele>
        <time>2012-08-14T17:50:41Z</time>
      </trkpt>
      <trkpt lat="59.9532757" lon="17.715756">
        <ele>41.474</ele>
        <time>2012-08-14T17:50:46Z</time>
      </trkpt>
      <trkpt lat="59.9532252" lon="17.715818">
        <ele>39.5513</ele>
        <time>2012-08-14T17:50:51Z</time>
      </trkpt>
      <trkpt lat="59.9531557" lon="17.7159334">
        <ele>37.6287</ele>
        <time>2012-08-14T17:50:57Z</time>
      </trkpt>
      <trkpt lat="59.9531204" lon="17.7160154">
        <ele>36.1868</ele>
        <time>2012-08-14T17:51:01Z</time>
      </trkpt>
      <trkpt lat="59.9531063" lon="17.7160605">
        <ele>35.7061</ele>
        <time>2012-08-14T17:51:03Z</time>
      </trkpt>
      <trkpt lat="59.9530317" lon="17.7162495">
        <ele>37.6287</ele>
        <time>2012-08-14T17:51:10Z</time>
      </trkpt>
      <trkpt lat="59.9530199" lon="17.7162785">
        <ele>39.0707</ele>
        <time>2012-08-14T17:51:11Z</time>
      </trkpt>
      <trkpt lat="59.9530001" lon="17.71647">
        <ele>40.5128</ele>
        <time>2012-08-14T17:51:18Z</time>
      </trkpt>
      <trkpt lat="59.9529972" lon="17.7165529">
        <ele>40.5128</ele>
        <time>2012-08-14T17:51:21Z</time>
      </trkpt>
      <trkpt lat="59.9530014" lon="17.7167645">
        <ele>41.9547</ele>
        <time>2012-08-14T17:51:27Z</time>
      </trkpt>
      <trkpt lat="59.9529734" lon="17.7170178">
        <ele>44.8386</ele>
        <time>2012-08-14T17:51:35Z</time>
      </trkpt>
      <trkpt lat="59.9529592" lon="17.7171327">
        <ele>44.8386</ele>
        <time>2012-08-14T17:51:39Z</time>
      </trkpt>
      <trkpt lat="59.9529305" lon="17.7172379">
        <ele>44.358</ele>
        <time>2012-08-14T17:51:43Z</time>
      </trkpt>
      <trkpt lat="59.9528709" lon="17.7174653">
        <ele>41.9547</ele>
        <time>2012-08-14T17:51:51Z</time>
      </trkpt>
      <trkpt lat="59.9528573" lon="17.7175189">
        <ele>43.8773</ele>
        <time>2012-08-14T17:51:53Z</time>
      </trkpt>
      <trkpt lat="59.9528232" lon="17.7177101">
        <ele>42.4354</ele>
        <time>2012-08-14T17:52:00Z</time>
      </trkpt>
      <trkpt lat="59.952747" lon="17.7178999">
        <ele>43.8773</ele>
        <time>2012-08-14T17:52:08Z</time>
      </trkpt>
      <trkpt lat="59.9526883" lon="17.7179351">
        <ele>42.916</ele>
        <time>2012-08-14T17:52:13Z</time>
      </trkpt>
      <trkpt lat="59.9526532" lon="17.7180397">
        <ele>43.3966</ele>
        <time>2012-08-14T17:52:17Z</time>
      </trkpt>
      <trkpt lat="59.952599" lon="17.7182367">
        <ele>46.7612</ele>
        <time>2012-08-14T17:52:24Z</time>
      </trkpt>
      <trkpt lat="59.9525757" lon="17.718426">
        <ele>51.0872</ele>
        <time>2012-08-14T17:52:30Z</time>
      </trkpt>
      <trkpt lat="59.9525572" lon="17.7185282">
        <ele>50.126</ele>
        <time>2012-08-14T17:52:34Z</time>
      </trkpt>
      <trkpt lat="59.9524859" lon="17.7187645">
        <ele>53.0098</ele>
        <time>2012-08-14T17:52:43Z</time>
      </trkpt>
      <trkpt lat="59.952484" lon="17.718798">
        <ele>52.5292</ele>
        <time>2012-08-14T17:52:44Z</time>
      </trkpt>
      <trkpt lat="59.9524395" lon="17.7190259">
        <ele>52.5292</ele>
        <time>2012-08-14T17:52:51Z</time>
      </trkpt>
      <trkpt lat="59.9524182" lon="17.7191601">
        <ele>52.0486</ele>
        <time>2012-08-14T17:52:56Z</time>
      </trkpt>
      <trkpt lat="59.9523921" lon="17.7193287">
        <ele>48.2034</ele>
        <time>2012-08-14T17:53:04Z</time>
      </trkpt>
      <trkpt lat="59.9524021" lon="17.7193815">
        <ele>49.1646</ele>
        <time>2012-08-14T17:53:06Z</time>
      </trkpt>
      <trkpt lat="59.9524181" lon="17.7195677">
        <ele>48.684</ele>
        <time>2012-08-14T17:53:13Z</time>
      </trkpt>
      <trkpt lat="59.9525045" lon="17.7198155">
        <ele>48.684</ele>
        <time>2012-08-14T17:53:22Z</time>
      </trkpt>
      <trkpt lat="59.9525264" lon="17.7200453">
        <ele>47.7225</ele>
        <time>2012-08-14T17:53:29Z</time>
      </trkpt>
      <trkpt lat="59.9525337" lon="17.720254">
        <ele>46.7612</ele>
        <time>2012-08-14T17:53:36Z</time>
      </trkpt>
      <trkpt lat="59.9525289" lon="17.7203185">
        <ele>51.0872</ele>
        <time>2012-08-14T17:53:39Z</time>
      </trkpt>
      <trkpt lat="59.952529" lon="17.7205711">
        <ele>55.4131</ele>
        <time>2012-08-14T17:53:47Z</time>
      </trkpt>
      <trkpt lat="59.9525004" lon="17.7207272">
        <ele>56.8551</ele>
        <time>2012-08-14T17:53:52Z</time>
      </trkpt>
      <trkpt lat="59.9525035" lon="17.7209431">
        <ele>57.3358</ele>
        <time>2012-08-14T17:53:58Z</time>
      </trkpt>
      <trkpt lat="59.9525133" lon="17.7212167">
        <ele>58.7777</ele>
        <time>2012-08-14T17:54:07Z</time>
      </trkpt>
      <trkpt lat="59.9525065" lon="17.7213802">
        <ele>58.7777</ele>
        <time>2012-08-14T17:54:12Z</time>
      </trkpt>
      <trkpt lat="59.9525199" lon="17.7215931">
        <ele>62.6229</ele>
        <time>2012-08-14T17:54:18Z</time>
      </trkpt>
      <trkpt lat="59.9525269" lon="17.7216092">
        <ele>62.6229</ele>
        <time>2012-08-14T17:54:19Z</time>
      </trkpt>
      <trkpt lat="59.9525772" lon="17.7217421">
        <ele>61.6617</ele>
        <time>2012-08-14T17:54:26Z</time>
      </trkpt>
      <trkpt lat="59.9525739" lon="17.7218638">
        <ele>59.2584</ele>
        <time>2012-08-14T17:54:30Z</time>
      </trkpt>
      <trkpt lat="59.9525954" lon="17.7220688">
        <ele>52.0486</ele>
        <time>2012-08-14T17:54:37Z</time>
      </trkpt>
      <trkpt lat="59.9525647" lon="17.7223246">
        <ele>51.5679</ele>
        <time>2012-08-14T17:54:45Z</time>
      </trkpt>
      <trkpt lat="59.9525286" lon="17.7224237">
        <ele>50.126</ele>
        <time>2012-08-14T17:54:49Z</time>
      </trkpt>
      <trkpt lat="59.9525222" lon="17.7224543">
        <ele>50.126</ele>
        <time>2012-08-14T17:54:50Z</time>
      </trkpt>
      <trkpt lat="59.9525041" lon="17.7225613">
        <ele>48.2034</ele>
        <time>2012-08-14T17:54:54Z</time>
      </trkpt>
      <trkpt lat="59.9525" lon="17.7226981">
        <ele>46.7612</ele>
        <time>2012-08-14T17:54:58Z</time>
      </trkpt>
      <trkpt lat="59.9525077" lon="17.7229369">
        <ele>47.2418</ele>
        <time>2012-08-14T17:55:06Z</time>
      </trkpt>
      <trkpt lat="59.9525238" lon="17.7231212">
        <ele>47.2418</ele>
        <time>2012-08-14T17:55:13Z</time>
      </trkpt>
      <trkpt lat="59.9525404" lon="17.7231986">
        <ele>47.2418</ele>
        <time>2012-08-14T17:55:16Z</time>
      </trkpt>
      <trkpt lat="59.9525633" lon="17.723271">
        <ele>43.8773</ele>
        <time>2012-08-14T17:55:22Z</time>
      </trkpt>
      <trkpt lat="59.9525708" lon="17.7232977">
        <ele>44.8386</ele>
        <time>2012-08-14T17:55:23Z</time>
      </trkpt>
      <trkpt lat="59.9526264" lon="17.7235132">
        <ele>46.7612</ele>
        <time>2012-08-14T17:55:31Z</time>
      </trkpt>
      <trkpt lat="59.9526719" lon="17.7236532">
        <ele>50.6066</ele>
        <time>2012-08-14T17:55:37Z</time>
      </trkpt>
      <trkpt lat="59.9526976" lon="17.723699">
        <ele>52.0486</ele>
        <time>2012-08-14T17:55:39Z</time>
      </trkpt>
      <trkpt lat="59.9527078" lon="17.7239104">
        <ele>46.7612</ele>
        <time>2012-08-14T17:55:47Z</time>
      </trkpt>
      <trkpt lat="59.9526477" lon="17.7241987">
        <ele>45.7999</ele>
        <time>2012-08-14T17:55:56Z</time>
      </trkpt>
      <trkpt lat="59.9526014" lon="17.7243382">
        <ele>46.2806</ele>
        <time>2012-08-14T17:56:01Z</time>
      </trkpt>
      <trkpt lat="59.952563" lon="17.7244732">
        <ele>43.8773</ele>
        <time>2012-08-14T17:56:06Z</time>
      </trkpt>
      <trkpt lat="59.9524927" lon="17.7246314">
        <ele>44.358</ele>
        <time>2012-08-14T17:56:12Z</time>
      </trkpt>
      <trkpt lat="59.9524091" lon="17.7247677">
        <ele>42.4354</ele>
        <time>2012-08-14T17:56:19Z</time>
      </trkpt>
      <trkpt lat="59.9523516" lon="17.7249194">
        <ele>39.0707</ele>
        <time>2012-08-14T17:56:26Z</time>
      </trkpt>
      <trkpt lat="59.9522528" lon="17.7251088">
        <ele>43.3966</ele>
        <time>2012-08-14T17:56:34Z</time>
      </trkpt>
      <trkpt lat="59.9521818" lon="17.7252704">
        <ele>43.3966</ele>
        <time>2012-08-14T17:56:40Z</time>
      </trkpt>
      <trkpt lat="59.9521612" lon="17.7253112">
        <ele>43.3966</ele>
        <time>2012-08-14T17:56:42Z</time>
      </trkpt>
      <trkpt lat="59.9521284" lon="17.7253959">
        <ele>42.916</ele>
        <time>2012-08-14T17:56:46Z</time>
      </trkpt>
      <trkpt lat="59.9520432" lon="17.7255673">
        <ele>44.8386</ele>
        <time>2012-08-14T17:56:54Z</time>
      </trkpt>
      <trkpt lat="59.9519766" lon="17.7257011">
        <ele>44.358</ele>
        <time>2012-08-14T17:57:00Z</time>
      </trkpt>
      <trkpt lat="59.9519219" lon="17.7258418">
        <ele>42.916</ele>
        <time>2012-08-14T17:57:06Z</time>
      </trkpt>
      <trkpt lat="59.951802" lon="17.7259529">
        <ele>43.3966</ele>
        <time>2012-08-14T17:57:15Z</time>
      </trkpt>
      <trkpt lat="59.9517295" lon="17.7260495">
        <ele>42.916</ele>
        <time>2012-08-14T17:57:20Z</time>
      </trkpt>
      <trkpt lat="59.9516732" lon="17.7261663">
        <ele>43.3966</ele>
        <time>2012-08-14T17:57:26Z</time>
      </trkpt>
      <trkpt lat="59.9516012" lon="17.7263331">
        <ele>44.358</ele>
        <time>2012-08-14T17:57:34Z</time>
      </trkpt>
      <trkpt lat="59.951557" lon="17.7264862">
        <ele>45.3192</ele>
        <time>2012-08-14T17:57:40Z</time>
      </trkpt>
      <trkpt lat="59.9515266" lon="17.7266382">
        <ele>43.3966</ele>
        <time>2012-08-14T17:57:46Z</time>
      </trkpt>
      <trkpt lat="59.9514904" lon="17.7268092">
        <ele>43.8773</ele>
        <time>2012-08-14T17:57:53Z</time>
      </trkpt>
      <trkpt lat="59.9515099" lon="17.7270022">
        <ele>46.2806</ele>
        <time>2012-08-14T17:58:00Z</time>
      </trkpt>
      <trkpt lat="59.9515352" lon="17.7272018">
        <ele>43.3966</ele>
        <time>2012-08-14T17:58:07Z</time>
      </trkpt>
      <trkpt lat="59.9515203" lon="17.72729">
        <ele>42.4354</ele>
        <time>2012-08-14T17:58:10Z</time>
      </trkpt>
      <trkpt lat="59.9515121" lon="17.7274575">
        <ele>40.0321</ele>
        <time>2012-08-14T17:58:16Z</time>
      </trkpt>
      <trkpt lat="59.951543" lon="17.7276025">
        <ele>42.4354</ele>
        <time>2012-08-14T17:58:21Z</time>
      </trkpt>
      <trkpt lat="59.9515875" lon="17.7277224">
        <ele>42.916</ele>
        <time>2012-08-14T17:58:27Z</time>
      </trkpt>
      <trkpt lat="59.951598" lon="17.7277441">
        <ele>42.916</ele>
        <time>2012-08-14T17:58:28Z</time>
      </trkpt>
      <trkpt lat="59.9516949" lon="17.7278891">
        <ele>47.2418</ele>
        <time>2012-08-14T17:58:36Z</time>
      </trkpt>
      <trkpt lat="59.9517912" lon="17.7279193">
        <ele>48.2034</ele>
        <time>2012-08-14T17:58:43Z</time>
      </trkpt>
      <trkpt lat="59.9518892" lon="17.7278493">
        <ele>46.7612</ele>
        <time>2012-08-14T17:58:51Z</time>
      </trkpt>
      <trkpt lat="59.951976" lon="17.7277841">
        <ele>48.2034</ele>
        <time>2012-08-14T17:58:57Z</time>
      </trkpt>
      <trkpt lat="59.9519996" lon="17.7277312">
        <ele>48.684</ele>
        <time>2012-08-14T17:58:59Z</time>
      </trkpt>
      <trkpt lat="59.9520142" lon="17.7276096">
        <ele>45.7999</ele>
        <time>2012-08-14T17:59:03Z</time>
      </trkpt>
      <trkpt lat="59.9520192" lon="17.7275018">
        <ele>42.916</ele>
        <time>2012-08-14T17:59:06Z</time>
      </trkpt>
      <trkpt lat="59.9520389" lon="17.7273489">
        <ele>37.6287</ele>
        <time>2012-08-14T17:59:12Z</time>
      </trkpt>
      <trkpt lat="59.9520835" lon="17.7271776">
        <ele>39.0707</ele>
        <time>2012-08-14T17:59:19Z</time>
      </trkpt>
      <trkpt lat="59.9520875" lon="17.7271547">
        <ele>38.5901</ele>
        <time>2012-08-14T17:59:20Z</time>
      </trkpt>
      <trkpt lat="59.9521378" lon="17.726955">
        <ele>43.3966</ele>
        <time>2012-08-14T17:59:28Z</time>
      </trkpt>
      <trkpt lat="59.9521818" lon="17.7267195">
        <ele>40.5128</ele>
        <time>2012-08-14T17:59:36Z</time>
      </trkpt>
      <trkpt lat="59.9522414" lon="17.7265589">
        <ele>44.358</ele>
        <time>2012-08-14T17:59:43Z</time>
      </trkpt>
      <trkpt lat="59.952289" lon="17.7264367">
        <ele>44.358</ele>
        <time>2012-08-14T17:59:48Z</time>
      </trkpt>
      <trkpt lat="59.9523706" lon="17.7262697">
        <ele>46.7612</ele>
        <time>2012-08-14T17:59:56Z</time>
      </trkpt>
      <trkpt lat="59.9524365" lon="17.7261534">
        <ele>47.7225</ele>
        <time>2012-08-14T18:00:02Z</time>
      </trkpt>
      <trkpt lat="59.9524859" lon="17.7260689">
        <ele>47.7225</ele>
        <time>2012-08-14T18:00:06Z</time>
      </trkpt>
      <trkpt lat="59.9525574" lon="17.7259266">
        <ele>47.2418</ele>
        <time>2012-08-14T18:00:13Z</time>
      </trkpt>
      <trkpt lat="59.9525692" lon="17.7259088">
        <ele>47.2418</ele>
        <time>2012-08-14T18:00:14Z</time>
      </trkpt>
      <trkpt lat="59.9526484" lon="17.7257223">
        <ele>37.6287</ele>
        <time>2012-08-14T18:00:22Z</time>
      </trkpt>
      <trkpt lat="59.9526719" lon="17.7256038">
        <ele>34.2642</ele>
        <time>2012-08-14T18:00:26Z</time>
      </trkpt>
      <trkpt lat="59.95272" lon="17.7255515">
        <ele>33.7834</ele>
        <time>2012-08-14T18:00:30Z</time>
      </trkpt>
      <trkpt lat="59.9527912" lon="17.7254414">
        <ele>37.6287</ele>
        <time>2012-08-14T18:00:35Z</time>
      </trkpt>
      <trkpt lat="59.9528766" lon="17.725366">
        <ele>37.6287</ele>
        <time>2012-08-14T18:00:41Z</time>
      </trkpt>
      <trkpt lat="59.9529181" lon="17.7251855">
        <ele>33.3029</ele>
        <time>2012-08-14T18:00:47Z</time>
      </trkpt>
      <trkpt lat="59.9529849" lon="17.7250557">
        <ele>34.7449</ele>
        <time>2012-08-14T18:00:53Z</time>
      </trkpt>
      <trkpt lat="59.9530448" lon="17.7249582">
        <ele>32.8223</ele>
        <time>2012-08-14T18:00:59Z</time>
      </trkpt>
      <trkpt lat="59.9530931" lon="17.724894">
        <ele>31.3801</ele>
        <time>2012-08-14T18:01:03Z</time>
      </trkpt>
      <trkpt lat="59.9531742" lon="17.7247722">
        <ele>36.1868</ele>
        <time>2012-08-14T18:01:09Z</time>
      </trkpt>
      <trkpt lat="59.9532455" lon="17.7246454">
        <ele>42.916</ele>
        <time>2012-08-14T18:01:16Z</time>
      </trkpt>
      <trkpt lat="59.9532624" lon="17.7245023">
        <ele>41.474</ele>
        <time>2012-08-14T18:01:21Z</time>
      </trkpt>
      <trkpt lat="59.9532739" lon="17.7244859">
        <ele>41.9547</ele>
        <time>2012-08-14T18:01:22Z</time>
      </trkpt>
      <trkpt lat="59.9533484" lon="17.7243401">
        <ele>42.4354</ele>
        <time>2012-08-14T18:01:29Z</time>
      </trkpt>
      <trkpt lat="59.9534417" lon="17.7242435">
        <ele>44.8386</ele>
        <time>2012-08-14T18:01:35Z</time>
      </trkpt>
      <trkpt lat="59.9534914" lon="17.7241676">
        <ele>45.3192</ele>
        <time>2012-08-14T18:01:39Z</time>
      </trkpt>
      <trkpt lat="59.9535529" lon="17.7240989">
        <ele>42.4354</ele>
        <time>2012-08-14T18:01:45Z</time>
      </trkpt>
      <trkpt lat="59.9536417" lon="17.7240037">
        <ele>47.7225</ele>
        <time>2012-08-14T18:01:51Z</time>
      </trkpt>
      <trkpt lat="59.9536477" lon="17.7239259">
        <ele>43.3966</ele>
        <time>2012-08-14T18:01:53Z</time>
      </trkpt>
      <trkpt lat="59.9537168" lon="17.7237471">
        <ele>42.916</ele>
        <time>2012-08-14T18:01:59Z</time>
      </trkpt>
      <trkpt lat="59.9537735" lon="17.7236374">
        <ele>38.1094</ele>
        <time>2012-08-14T18:02:05Z</time>
      </trkpt>
      <trkpt lat="59.9538956" lon="17.7235162">
        <ele>38.5901</ele>
        <time>2012-08-14T18:02:14Z</time>
      </trkpt>
      <trkpt lat="59.9539064" lon="17.7234893">
        <ele>38.5901</ele>
        <time>2012-08-14T18:02:15Z</time>
      </trkpt>
      <trkpt lat="59.9540509" lon="17.7233867">
        <ele>45.3192</ele>
        <time>2012-08-14T18:02:23Z</time>
      </trkpt>
      <trkpt lat="59.9541622" lon="17.7233602">
        <ele>51.5679</ele>
        <time>2012-08-14T18:02:29Z</time>
      </trkpt>
      <trkpt lat="59.9542519" lon="17.7233717">
        <ele>53.4905</ele>
        <time>2012-08-14T18:02:36Z</time>
      </trkpt>
      <trkpt lat="59.9543159" lon="17.7233336">
        <ele>46.2806</ele>
        <time>2012-08-14T18:02:43Z</time>
      </trkpt>
      <trkpt lat="59.9543916" lon="17.7233528">
        <ele>43.8773</ele>
        <time>2012-08-14T18:02:50Z</time>
      </trkpt>
      <trkpt lat="59.9544628" lon="17.7234044">
        <ele>45.3192</ele>
        <time>2012-08-14T18:02:56Z</time>
      </trkpt>
      <trkpt lat="59.9544721" lon="17.723417">
        <ele>45.7999</ele>
        <time>2012-08-14T18:02:57Z</time>
      </trkpt>
      <trkpt lat="59.954561" lon="17.7234566">
        <ele>44.8386</ele>
        <time>2012-08-14T18:03:04Z</time>
      </trkpt>
      <trkpt lat="59.9546565" lon="17.7235498">
        <ele>50.6066</ele>
        <time>2012-08-14T18:03:11Z</time>
      </trkpt>
      <trkpt lat="59.9547802" lon="17.7236095">
        <ele>53.9712</ele>
        <time>2012-08-14T18:03:18Z</time>
      </trkpt>
      <trkpt lat="59.9548797" lon="17.7236322">
        <ele>53.9712</ele>
        <time>2012-08-14T18:03:24Z</time>
      </trkpt>
      <trkpt lat="59.9549793" lon="17.7236734">
        <ele>50.6066</ele>
        <time>2012-08-14T18:03:30Z</time>
      </trkpt>
      <trkpt lat="59.9551226" lon="17.7236019">
        <ele>54.4518</ele>
        <time>2012-08-14T18:03:38Z</time>
      </trkpt>
      <trkpt lat="59.9551784" lon="17.7235544">
        <ele>50.6066</ele>
        <time>2012-08-14T18:03:43Z</time>
      </trkpt>
      <trkpt lat="59.9552065" lon="17.7234612">
        <ele>42.916</ele>
        <time>2012-08-14T18:03:47Z</time>
      </trkpt>
      <trkpt lat="59.9552626" lon="17.723472">
        <ele>43.8773</ele>
        <time>2012-08-14T18:03:50Z</time>
      </trkpt>
      <trkpt lat="59.9553333" lon="17.7234554">
        <ele>42.916</ele>
        <time>2012-08-14T18:03:55Z</time>
      </trkpt>
      <trkpt lat="59.9553619" lon="17.7234514">
        <ele>42.4354</ele>
        <time>2012-08-14T18:03:57Z</time>
      </trkpt>
      <trkpt lat="59.9554631" lon="17.7234702">
        <ele>42.4354</ele>
        <time>2012-08-14T18:04:04Z</time>
      </trkpt>
      <trkpt lat="59.9555221" lon="17.7235089">
        <ele>43.8773</ele>
        <time>2012-08-14T18:04:08Z</time>
      </trkpt>
      <trkpt lat="59.9556047" lon="17.7235004">
        <ele>44.8386</ele>
        <time>2012-08-14T18:04:13Z</time>
      </trkpt>
      <trkpt lat="59.9556483" lon="17.7235078">
        <ele>46.7612</ele>
        <time>2012-08-14T18:04:16Z</time>
      </trkpt>
      <trkpt lat="59.9557352" lon="17.7236441">
        <ele>46.7612</ele>
        <time>2012-08-14T18:04:24Z</time>
      </trkpt>
      <trkpt lat="59.9558449" lon="17.7237478">
        <ele>47.7225</ele>
        <time>2012-08-14T18:04:31Z</time>
      </trkpt>
      <trkpt lat="59.9558909" lon="17.7236942">
        <ele>42.4354</ele>
        <time>2012-08-14T18:04:35Z</time>
      </trkpt>
      <trkpt lat="59.9559981" lon="17.7235788">
        <ele>43.3966</ele>
        <time>2012-08-14T18:04:42Z</time>
      </trkpt>
      <trkpt lat="59.9560053" lon="17.7235457">
        <ele>42.4354</ele>
        <time>2012-08-14T18:04:43Z</time>
      </trkpt>
      <trkpt lat="59.956064" lon="17.7233039">
        <ele>43.3966</ele>
        <time>2012-08-14T18:04:52Z</time>
      </trkpt>
      <trkpt lat="59.9560648" lon="17.723141">
        <ele>41.474</ele>
        <time>2012-08-14T18:04:57Z</time>
      </trkpt>
      <trkpt lat="59.9560567" lon="17.7228903">
        <ele>38.5901</ele>
        <time>2012-08-14T18:05:05Z</time>
      </trkpt>
      <trkpt lat="59.956053" lon="17.7228613">
        <ele>40.0321</ele>
        <time>2012-08-14T18:05:06Z</time>
      </trkpt>
      <trkpt lat="59.956058" lon="17.7227443">
        <ele>41.9547</ele>
        <time>2012-08-14T18:05:11Z</time>
      </trkpt>
      <trkpt lat="59.9560227" lon="17.7226283">
        <ele>40.9934</ele>
        <time>2012-08-14T18:05:15Z</time>
      </trkpt>
      <trkpt lat="59.955966" lon="17.7224118">
        <ele>40.9934</ele>
        <time>2012-08-14T18:05:23Z</time>
      </trkpt>
      <trkpt lat="59.9559254" lon="17.7221999">
        <ele>40.0321</ele>
        <time>2012-08-14T18:05:29Z</time>
      </trkpt>
      <trkpt lat="59.9559421" lon="17.722007">
        <ele>38.5901</ele>
        <time>2012-08-14T18:05:35Z</time>
      </trkpt>
      <trkpt lat="59.9559479" lon="17.7217979">
        <ele>41.9547</ele>
        <time>2012-08-14T18:05:41Z</time>
      </trkpt>
      <trkpt lat="59.9559867" lon="17.721671">
        <ele>42.916</ele>
        <time>2012-08-14T18:05:46Z</time>
      </trkpt>
      <trkpt lat="59.9559902" lon="17.7215311">
        <ele>43.3966</ele>
        <time>2012-08-14T18:05:51Z</time>
      </trkpt>
      <trkpt lat="59.9559831" lon="17.7214514">
        <ele>45.3192</ele>
        <time>2012-08-14T18:05:54Z</time>
      </trkpt>
      <trkpt lat="59.955939" lon="17.7213479">
        <ele>43.3966</ele>
        <time>2012-08-14T18:05:59Z</time>
      </trkpt>
      <trkpt lat="59.9558668" lon="17.7212781">
        <ele>44.358</ele>
        <time>2012-08-14T18:06:04Z</time>
      </trkpt>
      <trkpt lat="59.9557479" lon="17.7212759">
        <ele>46.2806</ele>
        <time>2012-08-14T18:06:11Z</time>
      </trkpt>
      <trkpt lat="59.9556045" lon="17.7213192">
        <ele>52.0486</ele>
        <time>2012-08-14T18:06:20Z</time>
      </trkpt>
      <trkpt lat="59.9555402" lon="17.7213934">
        <ele>55.8938</ele>
        <time>2012-08-14T18:06:25Z</time>
      </trkpt>
      <trkpt lat="59.9554371" lon="17.7213886">
        <ele>56.3745</ele>
        <time>2012-08-14T18:06:31Z</time>
      </trkpt>
      <trkpt lat="59.9553543" lon="17.721384">
        <ele>56.3745</ele>
        <time>2012-08-14T18:06:37Z</time>
      </trkpt>
      <trkpt lat="59.9553112" lon="17.7213636">
        <ele>55.4131</ele>
        <time>2012-08-14T18:06:41Z</time>
      </trkpt>
      <trkpt lat="59.9552906" lon="17.721351">
        <ele>51.0872</ele>
        <time>2012-08-14T18:06:44Z</time>
      </trkpt>
      <trkpt lat="59.9551749" lon="17.7213242">
        <ele>53.4905</ele>
        <time>2012-08-14T18:06:50Z</time>
      </trkpt>
      <trkpt lat="59.9551132" lon="17.7213452">
        <ele>56.8551</ele>
        <time>2012-08-14T18:06:54Z</time>
      </trkpt>
      <trkpt lat="59.9550133" lon="17.7213467">
        <ele>51.0872</ele>
        <time>2012-08-14T18:07:00Z</time>
      </trkpt>
      <trkpt lat="59.9549401" lon="17.7213524">
        <ele>52.5292</ele>
        <time>2012-08-14T18:07:04Z</time>
      </trkpt>
      <trkpt lat="59.9549073" lon="17.7213289">
        <ele>52.0486</ele>
        <time>2012-08-14T18:07:06Z</time>
      </trkpt>
      <trkpt lat="59.9548464" lon="17.7212607">
        <ele>50.6066</ele>
        <time>2012-08-14T18:07:10Z</time>
      </trkpt>
      <trkpt lat="59.9548021" lon="17.7211204">
        <ele>43.3966</ele>
        <time>2012-08-14T18:07:16Z</time>
      </trkpt>
      <trkpt lat="59.9548156" lon="17.7209699">
        <ele>40.9934</ele>
        <time>2012-08-14T18:07:22Z</time>
      </trkpt>
      <trkpt lat="59.95482" lon="17.7207697">
        <ele>38.1094</ele>
        <time>2012-08-14T18:07:29Z</time>
      </trkpt>
      <trkpt lat="59.9548347" lon="17.720708">
        <ele>37.6287</ele>
        <time>2012-08-14T18:07:31Z</time>
      </trkpt>
      <trkpt lat="59.954858" lon="17.7205785">
        <ele>35.2255</ele>
        <time>2012-08-14T18:07:35Z</time>
      </trkpt>
      <trkpt lat="59.9549506" lon="17.7204488">
        <ele>40.5128</ele>
        <time>2012-08-14T18:07:43Z</time>
      </trkpt>
      <trkpt lat="59.9550577" lon="17.7203317">
        <ele>46.2806</ele>
        <time>2012-08-14T18:07:49Z</time>
      </trkpt>
      <trkpt lat="59.9551247" lon="17.7202066">
        <ele>48.2034</ele>
        <time>2012-08-14T18:07:55Z</time>
      </trkpt>
      <trkpt lat="59.9551934" lon="17.7200982">
        <ele>49.6453</ele>
        <time>2012-08-14T18:08:01Z</time>
      </trkpt>
      <trkpt lat="59.955248" lon="17.7200341">
        <ele>51.0872</ele>
        <time>2012-08-14T18:08:06Z</time>
      </trkpt>
      <trkpt lat="59.955261" lon="17.7200149">
        <ele>52.5292</ele>
        <time>2012-08-14T18:08:07Z</time>
      </trkpt>
      <trkpt lat="59.9553574" lon="17.71995">
        <ele>56.3745</ele>
        <time>2012-08-14T18:08:14Z</time>
      </trkpt>
      <trkpt lat="59.9554494" lon="17.7198804">
        <ele>57.8165</ele>
        <time>2012-08-14T18:08:20Z</time>
      </trkpt>
      <trkpt lat="59.9555617" lon="17.7198201">
        <ele>57.8165</ele>
        <time>2012-08-14T18:08:28Z</time>
      </trkpt>
      <trkpt lat="59.9556413" lon="17.7197684">
        <ele>54.9324</ele>
        <time>2012-08-14T18:08:34Z</time>
      </trkpt>
      <trkpt lat="59.9557261" lon="17.7196927">
        <ele>53.0098</ele>
        <time>2012-08-14T18:08:40Z</time>
      </trkpt>
      <trkpt lat="59.9558008" lon="17.7196053">
        <ele>51.0872</ele>
        <time>2012-08-14T18:08:46Z</time>
      </trkpt>
      <trkpt lat="59.9558603" lon="17.7195689">
        <ele>53.0098</ele>
        <time>2012-08-14T18:08:50Z</time>
      </trkpt>
      <trkpt lat="59.9559266" lon="17.7195068">
        <ele>51.5679</ele>
        <time>2012-08-14T18:08:55Z</time>
      </trkpt>
      <trkpt lat="59.9559913" lon="17.7194516">
        <ele>49.6453</ele>
        <time>2012-08-14T18:09:00Z</time>
      </trkpt>
      <trkpt lat="59.9560789" lon="17.7193264">
        <ele>53.9712</ele>
        <time>2012-08-14T18:09:06Z</time>
      </trkpt>
      <trkpt lat="59.9561607" lon="17.7191934">
        <ele>54.4518</ele>
        <time>2012-08-14T18:09:13Z</time>
      </trkpt>
      <trkpt lat="59.9562012" lon="17.7190903">
        <ele>56.8551</ele>
        <time>2012-08-14T18:09:17Z</time>
      </trkpt>
      <trkpt lat="59.9562332" lon="17.7189515">
        <ele>54.4518</ele>
        <time>2012-08-14T18:09:22Z</time>
      </trkpt>
      <trkpt lat="59.9562357" lon="17.7187162">
        <ele>52.5292</ele>
        <time>2012-08-14T18:09:29Z</time>
      </trkpt>
      <trkpt lat="59.9561825" lon="17.7185447">
        <ele>49.1646</ele>
        <time>2012-08-14T18:09:35Z</time>
      </trkpt>
      <trkpt lat="59.9561709" lon="17.7185034">
        <ele>47.7225</ele>
        <time>2012-08-14T18:09:37Z</time>
      </trkpt>
      <trkpt lat="59.9561085" lon="17.7183139">
        <ele>44.358</ele>
        <time>2012-08-14T18:09:44Z</time>
      </trkpt>
      <trkpt lat="59.9560503" lon="17.7181185">
        <ele>44.358</ele>
        <time>2012-08-14T18:09:52Z</time>
      </trkpt>
      <trkpt lat="59.9559867" lon="17.7179482">
        <ele>43.8773</ele>
        <time>2012-08-14T18:09:59Z</time>
      </trkpt>
      <trkpt lat="59.9559345" lon="17.7178512">
        <ele>49.1646</ele>
        <time>2012-08-14T18:10:04Z</time>
      </trkpt>
      <trkpt lat="59.9559122" lon="17.7177603">
        <ele>48.2034</ele>
        <time>2012-08-14T18:10:08Z</time>
      </trkpt>
      <trkpt lat="59.9558971" lon="17.7176977">
        <ele>47.2418</ele>
        <time>2012-08-14T18:10:10Z</time>
      </trkpt>
      <trkpt lat="59.9558203" lon="17.7175304">
        <ele>46.7612</ele>
        <time>2012-08-14T18:10:17Z</time>
      </trkpt>
      <trkpt lat="59.9557817" lon="17.7174715">
        <ele>46.7612</ele>
        <time>2012-08-14T18:10:20Z</time>
      </trkpt>
      <trkpt lat="59.9557105" lon="17.7172921">
        <ele>48.2034</ele>
        <time>2012-08-14T18:10:27Z</time>
      </trkpt>
      <trkpt lat="59.9556572" lon="17.7171787">
        <ele>50.6066</ele>
        <time>2012-08-14T18:10:33Z</time>
      </trkpt>
      <trkpt lat="59.9556442" lon="17.7170954">
        <ele>52.5292</ele>
        <time>2012-08-14T18:10:37Z</time>
      </trkpt>
      <trkpt lat="59.955604" lon="17.7169493">
        <ele>55.4131</ele>
        <time>2012-08-14T18:10:42Z</time>
      </trkpt>
      <trkpt lat="59.9555912" lon="17.7168398">
        <ele>51.5679</ele>
        <time>2012-08-14T18:10:46Z</time>
      </trkpt>
      <trkpt lat="59.9555789" lon="17.7165903">
        <ele>52.5292</ele>
        <time>2012-08-14T18:10:55Z</time>
      </trkpt>
      <trkpt lat="59.9555551" lon="17.7164721">
        <ele>51.5679</ele>
        <time>2012-08-14T18:10:59Z</time>
      </trkpt>
      <trkpt lat="59.9555615" lon="17.7163329">
        <ele>52.0486</ele>
        <time>2012-08-14T18:11:04Z</time>
      </trkpt>
      <trkpt lat="59.9555639" lon="17.7162904">
        <ele>50.126</ele>
        <time>2012-08-14T18:11:06Z</time>
      </trkpt>
      <trkpt lat="59.9555625" lon="17.716198">
        <ele>48.2034</ele>
        <time>2012-08-14T18:11:10Z</time>
      </trkpt>
      <trkpt lat="59.9555475" lon="17.7161022">
        <ele>47.2418</ele>
        <time>2012-08-14T18:11:13Z</time>
      </trkpt>
      <trkpt lat="59.9555335" lon="17.7159454">
        <ele>44.8386</ele>
        <time>2012-08-14T18:11:17Z</time>
      </trkpt>
      <trkpt lat="59.9555132" lon="17.7158266">
        <ele>45.3192</ele>
        <time>2012-08-14T18:11:23Z</time>
      </trkpt>
      <trkpt lat="59.9554897" lon="17.7156394">
        <ele>44.8386</ele>
        <time>2012-08-14T18:11:29Z</time>
      </trkpt>
      <trkpt lat="59.9554688" lon="17.7154518">
        <ele>43.3966</ele>
        <time>2012-08-14T18:11:35Z</time>
      </trkpt>
      <trkpt lat="59.955463" lon="17.7153127">
        <ele>41.474</ele>
        <time>2012-08-14T18:11:41Z</time>
      </trkpt>
      <trkpt lat="59.9554355" lon="17.7151316">
        <ele>39.0707</ele>
        <time>2012-08-14T18:11:48Z</time>
      </trkpt>
      <trkpt lat="59.95542" lon="17.7150321">
        <ele>38.1094</ele>
        <time>2012-08-14T18:11:52Z</time>
      </trkpt>
      <trkpt lat="59.9553743" lon="17.7148349">
        <ele>41.9547</ele>
        <time>2012-08-14T18:11:59Z</time>
      </trkpt>
      <trkpt lat="59.9553623" lon="17.7147696">
        <ele>41.474</ele>
        <time>2012-08-14T18:12:02Z</time>
      </trkpt>
      <trkpt lat="59.9553545" lon="17.7147157">
        <ele>40.5128</ele>
        <time>2012-08-14T18:12:04Z</time>
      </trkpt>
      <trkpt lat="59.9553277" lon="17.7145827">
        <ele>37.6287</ele>
        <time>2012-08-14T18:12:09Z</time>
      </trkpt>
      <trkpt lat="59.9553195" lon="17.7144857">
        <ele>38.1094</ele>
        <time>2012-08-14T18:12:14Z</time>
      </trkpt>
      <trkpt lat="59.9553103" lon="17.7144343">
        <ele>38.5901</ele>
        <time>2012-08-14T18:12:16Z</time>
      </trkpt>
      <trkpt lat="59.9552802" lon="17.7143159">
        <ele>35.7061</ele>
        <time>2012-08-14T18:12:20Z</time>
      </trkpt>
      <trkpt lat="59.9552481" lon="17.7142137">
        <ele>36.6675</ele>
        <time>2012-08-14T18:12:24Z</time>
      </trkpt>
      <trkpt lat="59.955202" lon="17.7141438">
        <ele>40.5128</ele>
        <time>2012-08-14T18:12:30Z</time>
      </trkpt>
    </trkseg>
  </trk>
</gpx>